Terminal Aerodrome Forecast
Issued by NWS

Home | Current Version | Previous Version | Text Only | Print | Product List | Glossary On
Versions: 1 2 3 4 5 6 7 8 9 10 11 12 13 14 15 16 17 18 19
748
FTUS43 KLSX 201120
TAFUIN
TAF
KUIN 201120Z 2012/2112 00000KT 1/4SM FG VV003
     FM201600 15004KT 1SM BR OVC003
     FM201800 15006KT P6SM OVC008
     FM210400 16009KT 2SM BR OVC015=

USA.gov is the U.S. government's official web portal to all federal, state and local government web resources and services.